Time;durP1;ratioP1;P1;durP2;ratioP2;P2;SDS_P1;SDS_P2;PMS_P1;PMS_P2;Temp;Humidity;BMP_temperature;BMP_pressure;BME280_temperature;BME280_humidity;BME280_pressure;Samples;Min_cycle;Max_cycle;Signal;HPM_P1;HPM_P2
2022/07/17 00:03:03;;;;;;;;;;;18.00;86.60;;;16.99;52.65;96396.59;10466602;28;1848;-77
2022/07/17 00:08:07;;;;;;;;;;;18.00;86.70;;;16.90;52.54;96398.38;10474183;28;1937;-77
2022/07/17 00:13:09;;;;;;;;;;;17.90;86.60;;;16.85;53.12;96395.72;10476433;28;1798;-76
2022/07/17 00:18:14;;;;;;;;;;;17.90;86.80;;;16.71;54.07;96401.13;10480058;28;1888;-77
2022/07/17 00:23:19;;;;;;;;;;;17.80;87.20;;;16.55;55.13;96401.66;10484253;28;1915;-78
2022/07/17 00:28:23;;;;;;;;;;;17.70;87.90;;;16.40;56.63;96394.56;10468858;28;1947;-79
2022/07/17 00:33:26;;;;;;;;;;;17.50;88.90;;;16.28;56.78;96391.50;10486008;28;1925;-78
2022/07/17 00:38:29;;;;;;;;;;;17.40;89.20;;;16.13;58.10;96393.34;10482986;28;1881;-78
2022/07/17 00:43:32;;;;;;;;;;;17.20;89.70;;;16.16;58.16;96394.69;10486568;28;1881;-78
2022/07/17 00:48:35;;;;;;;;;;;17.10;90.50;;;16.17;58.88;96396.28;10477455;28;1918;-77
2022/07/17 00:53:38;;;;;;;;;;;17.10;91.10;;;16.15;59.29;96396.56;10471771;28;2192;-79
2022/07/17 00:58:41;;;;;;;;;;;17.20;91.00;;;16.00;59.29;96395.97;10483914;28;2124;-78
2022/07/17 01:03:45;;;;;;;;;;;17.10;90.90;;;16.00;60.70;96402.22;10488987;28;1971;-78
2022/07/17 01:08:49;;;;;;;;;;;17.00;91.50;;;16.12;59.09;96399.88;10481200;28;2229;-77
2022/07/17 01:13:51;;;;;;;;;;;17.00;91.50;;;15.99;61.44;96394.38;10476693;28;2235;-79
2022/07/17 01:18:57;;;;;;;;;;;17.00;92.10;;;15.89;62.29;96389.88;10480424;28;1915;-79
2022/07/17 01:24:01;;;;;;;;;;;17.00;92.50;;;15.78;63.62;96391.13;10476999;28;1954;-78
2022/07/17 01:29:05;;;;;;;;;;;16.80;93.60;;;15.61;64.88;96388.88;10472796;28;1942;-78
2022/07/17 01:34:08;;;;;;;;;;;16.70;93.90;;;15.57;65.85;96393.25;10479782;28;2008;-78
2022/07/17 01:39:17;;;;;;;;;;;16.60;94.70;;;15.51;66.98;96395.22;10472161;28;1880;-77
2022/07/17 01:44:20;;;;;;;;;;;16.50;95.40;;;15.49;66.41;96383.88;10477867;28;1859;-79
2022/07/17 01:49:23;;;;;;;;;;;16.50;95.30;;;15.31;67.85;96392.75;10486658;28;2004;-79
2022/07/17 01:54:25;;;;;;;;;;;16.40;95.40;;;15.24;68.06;96392.28;10469323;28;1953;-78
2022/07/17 01:59:28;;;;;;;;;;;16.30;95.80;;;15.13;68.08;96395.09;10476481;28;1958;-78
2022/07/17 02:04:31;;;;;;;;;;;16.30;96.00;;;15.14;68.70;96396.75;10475051;28;2011;-78
2022/07/17 02:09:34;;;;;;;;;;;16.10;96.40;;;15.18;68.79;96390.72;10481877;28;1918;-79
2022/07/17 02:14:38;;;;;;;;;;;16.20;96.70;;;15.06;69.52;96394.63;10489682;28;2123;-78
2022/07/17 02:19:41;;;;;;;;;;;16.10;96.70;;;14.97;69.64;96385.53;10486685;28;1921;-78
2022/07/17 02:24:44;;;;;;;;;;;16.00;96.80;;;14.90;70.09;96381.56;10473733;28;1977;-77
2022/07/17 02:29:48;;;;;;;;;;;16.00;96.90;;;14.80;70.99;96379.75;10485317;28;2255;-78
2022/07/17 02:34:51;;;;;;;;;;;15.90;97.60;;;14.71;71.60;96392.28;10515703;28;1738;-79
2022/07/17 02:39:54;;;;;;;;;;;15.80;98.00;;;14.63;72.08;96387.47;10505274;28;1732;-78
2022/07/17 02:44:57;;;;;;;;;;;15.70;98.50;;;14.57;74.48;96392.94;10491043;28;1915;-79
2022/07/17 02:50:01;;;;;;;;;;;15.70;99.30;;;14.58;74.07;96393.75;10483973;28;1914;-79
2022/07/17 02:55:05;;;;;;;;;;;15.60;99.30;;;14.56;74.22;96380.50;10481722;28;1960;-78
2022/07/17 03:00:08;;;;;;;;;;;15.60;99.50;;;14.43;75.44;96391.13;10500247;28;1834;-78
2022/07/17 03:05:11;;;;;;;;;;;15.50;99.90;;;14.27;75.86;96391.25;10481656;28;1909;-80
2022/07/17 03:10:14;;;;;;;;;;;15.40;99.90;;;14.20;76.82;96401.59;10475124;28;1806;-78
2022/07/17 03:15:17;;;;;;;;;;;15.30;99.90;;;14.12;77.48;96395.94;10485613;28;1941;-79
2022/07/17 03:20:20;;;;;;;;;;;15.20;99.90;;;14.04;79.61;96384.66;10471271;28;2656;-78
2022/07/17 03:25:24;;;;;;;;;;;15.20;99.90;;;13.96;80.51;96385.25;10480006;28;1906;-78
2022/07/17 03:30:27;;;;;;;;;;;15.00;99.90;;;13.91;80.61;96390.69;10482511;28;1429;-77
2022/07/17 03:35:31;;;;;;;;;;;15.00;99.90;;;13.91;81.01;96390.69;10490059;28;1459;-77
2022/07/17 03:40:34;;;;;;;;;;;15.00;99.90;;;14.00;80.84;96394.44;10527740;28;1283;-80
2022/07/17 03:45:37;;;;;;;;;;;14.90;99.90;;;14.22;79.44;96388.59;10525953;28;1890;-79
2022/07/17 03:50:40;;;;;;;;;;;15.10;99.90;;;14.43;78.86;96386.53;10519700;28;1857;-78
2022/07/17 03:55:44;;;;;;;;;;;15.30;99.90;;;14.76;74.78;96394.94;10482786;28;1877;-77
2022/07/17 04:00:47;;;;;;;;;;;15.50;99.90;;;14.94;74.09;96396.94;10478841;28;1822;-78
2022/07/17 04:05:50;;;;;;;;;;;15.70;99.90;;;15.21;73.29;96398.31;10481265;28;1902;-78
2022/07/17 04:10:54;;;;;;;;;;;15.90;99.90;;;15.41;70.76;96406.19;10478136;28;1757;-79
2022/07/17 04:15:59;;;;;;;;;;;16.20;99.40;;;15.67;68.30;96410.22;10482145;28;1463;-76
2022/07/17 04:21:03;;;;;;;;;;;16.40;98.20;;;15.61;68.73;96414.06;10477988;28;1876;-77
2022/07/17 04:26:07;;;;;;;;;;;16.50;97.90;;;15.68;67.49;96411.84;10480993;28;1975;-78
2022/07/17 04:31:13;;;;;;;;;;;16.50;97.20;;;16.07;66.04;96412.69;10478040;28;1776;-78
2022/07/17 04:36:16;;;;;;;;;;;16.70;97.00;;;16.38;62.64;96405.72;10477597;28;1817;-75
2022/07/17 04:41:19;;;;;;;;;;;17.00;95.70;;;16.45;59.65;96413.47;10474374;28;1820;-80
2022/07/17 04:46:22;;;;;;;;;;;17.20;93.10;;;16.72;57.10;96419.03;10481369;28;1909;-79
2022/07/17 04:51:25;;;;;;;;;;;17.40;92.20;;;16.60;56.83;96410.50;10476648;28;1903;-78
2022/07/17 04:56:29;;;;;;;;;;;17.50;91.00;;;16.91;55.58;96410.84;10478214;28;1753;-77
2022/07/17 05:01:34;;;;;;;;;;;17.50;90.70;;;17.04;53.78;96409.25;10474525;28;1809;-80
2022/07/17 05:06:37;;;;;;;;;;;17.80;89.50;;;16.97;53.32;96415.06;10476067;28;2029;-79
2022/07/17 05:11:40;;;;;;;;;;;17.90;88.90;;;17.36;53.71;96410.28;10507083;28;1821;-78
2022/07/17 05:16:43;;;;;;;;;;;18.00;89.30;;;17.81;52.17;96403.16;10486858;28;1788;-78
2022/07/17 05:21:47;;;;;;;;;;;18.40;88.80;;;17.92;52.46;96401.03;10475998;28;1866;-78
2022/07/17 05:26:50;;;;;;;;;;;18.60;88.40;;;18.39;51.20;96410.59;10473299;28;1914;-78
2022/07/17 05:31:58;;;;;;;;;;;18.90;88.10;;;18.20;52.61;96402.59;10468373;28;1948;-78
2022/07/17 05:37:01;;;;;;;;;;;19.00;87.90;;;17.74;53.67;96406.28;10473686;28;1845;-79
2022/07/17 05:42:04;;;;;;;;;;;18.80;88.00;;;18.34;52.72;96411.53;10470248;28;1865;-79
2022/07/17 05:47:08;;;;;;;;;;;19.00;88.50;;;18.88;51.91;96404.25;10468920;28;1914;-78
2022/07/17 05:52:11;;;;;;;;;;;19.40;88.60;;;19.14;51.99;96400.84;10483575;28;1860;-76
2022/07/17 05:57:14;;;;;;;;;;;19.70;88.60;;;19.63;49.95;96410.72;10484001;28;1978;-78
2022/07/17 06:02:17;;;;;;;;;;;20.10;87.50;;;19.67;48.28;96411.72;10476943;28;1884;-79
2022/07/17 06:07:21;;;;;;;;;;;20.40;85.50;;;19.45;49.53;96414.47;10477894;28;1918;-78
2022/07/17 06:12:23;;;;;;;;;;;20.30;86.10;;;19.91;49.23;96414.03;10480396;28;1833;-78
2022/07/17 06:17:28;;;;;;;;;;;20.50;86.60;;;19.68;48.54;96412.50;10481183;28;1867;-79
2022/07/17 06:22:33;;;;;;;;;;;20.60;85.10;;;20.25;47.05;96410.53;10476903;28;2034;-78
2022/07/17 06:27:36;;;;;;;;;;;20.70;84.90;;;20.62;44.89;96413.78;10479690;28;1902;-78
2022/07/17 06:32:39;;;;;;;;;;;21.10;83.10;;;21.06;43.90;96411.81;10484308;28;2005;-80
2022/07/17 06:37:43;;;;;;;;;;;21.50;82.80;;;21.41;42.68;96417.97;10481330;28;2318;-78
2022/07/17 06:42:56;;;;;;;;;;;21.90;81.40;;;21.36;42.98;96420.88;10515779;22;2176;-77
2022/07/17 06:48:14;;;;;;;;;;;22.10;81.10;;;21.52;42.81;96424.72;10474140;28;1961;-78
2022/07/17 06:59:26;;;;;;;;;;;22.40;79.30;;;21.48;42.46;96431.16;10457748;28;1816;-78
2022/07/17 07:04:29;;;;;;;;;;;22.40;79.60;;;21.01;41.10;96436.56;10491403;28;2076;-78
2022/07/17 07:09:32;;;;;;;;;;;22.30;78.20;;;21.34;41.41;96434.09;10487558;28;1917;-77
2022/07/17 07:14:35;;;;;;;;;;;22.20;78.90;;;21.79;40.33;96425.38;10486053;28;1836;-77
2022/07/17 07:19:38;;;;;;;;;;;22.50;78.40;;;22.11;39.77;96423.94;10482933;28;1981;-78
2022/07/17 07:24:41;;;;;;;;;;;22.80;78.30;;;22.41;39.12;96432.94;10471341;28;1832;-78
2022/07/17 07:29:43;;;;;;;;;;;23.00;77.90;;;22.72;39.55;96426.25;10484908;28;1950;-78
2022/07/17 07:34:46;;;;;;;;;;;23.20;78.10;;;22.08;39.54;96430.06;10473226;28;3249;-78
2022/07/17 07:39:50;;;;;;;;;;;23.40;76.40;;;22.10;39.05;96425.88;10484448;28;1767;-77
2022/07/17 07:44:53;;;;;;;;;;;23.10;76.70;;;22.72;39.46;96434.47;10488703;28;1912;-79
2022/07/17 07:49:55;;;;;;;;;;;23.20;77.60;;;22.66;37.73;96437.41;10488568;28;1992;-77
2022/07/17 07:54:59;;;;;;;;;;;23.40;75.80;;;22.81;38.34;96430.50;10493974;28;2010;-76
2022/07/17 08:00:02;;;;;;;;;;;23.50;76.50;;;22.57;37.52;96430.38;10482521;28;1797;-78
2022/07/17 08:05:05;;;;;;;;;;;23.60;74.90;;;23.01;36.74;96434.38;10484502;28;2165;-76
2022/07/17 08:10:09;;;;;;;;;;;23.80;74.50;;;22.71;35.95;96430.91;10487288;28;1914;-78
2022/07/17 08:15:11;;;;;;;;;;;24.00;72.90;;;23.10;34.76;96432.38;10490814;28;1915;-79
2022/07/17 08:20:14;;;;;;;;;;;23.80;72.80;;;23.67;33.59;96439.03;10487961;28;1958;-77
2022/07/17 08:25:17;;;;;;;;;;;24.20;71.90;;;23.95;33.09;96428.16;10484756;28;1844;-79
2022/07/17 08:30:20;;;;;;;;;;;24.60;71.40;;;24.43;32.48;96432.00;10489722;28;1979;-78
2022/07/17 08:35:23;;;;;;;;;;;25.00;71.20;;;23.88;34.17;96445.19;10483389;28;1872;-77
2022/07/17 08:40:26;;;;;;;;;;;25.20;70.70;;;23.33;34.32;96445.66;10488035;28;1843;-79
2022/07/17 08:45:29;;;;;;;;;;;24.40;70.90;;;23.76;33.53;96449.88;10506592;28;1822;-78
2022/07/17 08:50:32;;;;;;;;;;;24.60;71.20;;;24.18;32.52;96451.28;10501492;28;1973;-80
2022/07/17 08:55:35;;;;;;;;;;;24.80;70.70;;;24.07;30.85;96446.56;10493356;28;1801;-78
2022/07/17 09:00:39;;;;;;;;;;;25.10;68.00;;;24.28;31.91;96458.22;10487461;28;1867;-79
2022/07/17 09:05:42;;;;;;;;;;;25.20;68.90;;;23.98;32.28;96457.66;10475340;28;1808;-78
2022/07/17 09:10:45;;;;;;;;;;;24.90;69.20;;;24.37;32.72;96445.22;10490831;28;1965;-78
2022/07/17 09:15:48;;;;;;;;;;;25.10;70.00;;;24.16;32.01;96445.28;10482330;28;1738;-79
2022/07/17 09:20:51;;;;;;;;;;;25.20;68.90;;;24.12;32.59;96444.41;10486561;28;1800;-80
2022/07/17 09:25:54;;;;;;;;;;;25.10;69.50;;;24.17;33.26;96446.09;10489664;28;1807;-79
2022/07/17 09:30:57;;;;;;;;;;;25.10;70.30;;;23.73;33.36;96443.16;10462917;28;1991;-80
2022/07/17 09:36:00;;;;;;;;;;;25.00;69.60;;;23.65;34.02;96447.56;10480546;28;1806;-78
2022/07/17 09:41:16;;;;;;;;;;;24.80;70.40;;;24.33;33.94;96448.94;10483885;28;1700;-78
2022/07/17 09:46:19;;;;;;;;;;;24.90;71.50;;;24.48;31.82;96451.81;10490115;28;1869;-77
2022/07/17 09:51:22;;;;;;;;;;;25.30;69.10;;;24.23;32.53;96456.50;10488549;28;1981;-77
2022/07/17 09:56:25;;;;;;;;;;;25.30;69.10;;;24.53;32.37;96451.56;10490251;28;1859;-77
2022/07/17 10:01:29;;;;;;;;;;;25.30;69.40;;;24.74;32.71;96448.63;10488196;28;1880;-79
2022/07/17 10:06:32;;;;;;;;;;;25.50;70.00;;;24.47;31.97;96454.91;10486930;28;1855;-79
2022/07/17 10:11:36;;;;;;;;;;;25.60;68.20;;;24.71;31.28;96460.34;10475036;28;2112;-80
2022/07/17 10:16:46;;;;;;;;;;;25.60;68.30;;;24.26;30.38;96461.31;10473519;28;1754;-80
2022/07/17 10:21:49;;;;;;;;;;;25.50;66.50;;;24.90;30.35;96456.16;10474364;28;1789;-80
2022/07/17 10:26:52;;;;;;;;;;;25.60;67.30;;;24.97;29.21;96465.41;10481923;28;1875;-80
2022/07/17 10:31:56;;;;;;;;;;;25.70;65.90;;;25.01;28.75;96462.78;10487525;28;1972;-78
2022/07/17 10:36:59;;;;;;;;;;;25.80;65.30;;;25.11;28.95;96465.03;10477294;28;1795;-79
2022/07/17 10:42:02;;;;;;;;;;;26.00;65.90;;;25.42;27.88;96464.31;10486536;28;1880;-78
2022/07/17 10:47:06;;;;;;;;;;;26.20;65.00;;;25.65;27.19;96453.53;10491181;28;1878;-78
2022/07/17 10:52:09;;;;;;;;;;;26.50;63.90;;;26.90;24.81;96454.47;10493201;28;1793;-79
2022/07/17 10:57:13;;;;;;;;;;;28.00;62.10;;;27.10;25.30;96443.47;10490597;28;1844;-78
2022/07/17 11:02:16;;;;;;;;;;;28.90;60.90;;;26.39;24.89;96432.47;10479858;28;1881;-78
2022/07/17 11:07:19;;;;;;;;;;;28.90;59.20;;;26.68;24.59;96439.44;10474050;28;2183;-78
2022/07/17 11:12:23;;;;;;;;;;;28.90;58.90;;;27.29;23.81;96432.41;10488763;28;1816;-79
2022/07/17 11:17:27;;;;;;;;;;;29.30;59.30;;;27.34;23.65;96431.31;10486963;28;1801;-78
2022/07/17 11:22:30;;;;;;;;;;;29.90;57.70;;;28.49;21.93;96413.47;10480451;28;1862;-77
2022/07/17 11:27:33;;;;;;;;;;;30.60;57.90;;;27.91;23.38;96413.00;10528143;28;2234;-79
2022/07/17 11:32:37;;;;;;;;;;;30.90;57.30;;;27.67;24.17;96394.81;10521800;28;1782;-78
2022/07/17 11:37:41;;;;;;;;;;;30.40;58.60;;;26.99;24.25;96403.81;10521401;28;1591;-82
2022/07/17 11:42:45;;;;;;;;;;;29.40;58.30;;;26.01;24.60;96391.06;10518581;28;1853;-79
2022/07/17 11:47:48;;;;;;;;;;;28.40;58.10;;;25.36;25.60;96396.13;10516960;28;1891;-80
2022/07/17 11:52:51;;;;;;;;;;;27.10;59.50;;;25.51;26.08;96387.91;10531712;28;1346;-78
2022/07/17 11:57:54;;;;;;;;;;;26.70;60.30;;;25.63;24.81;96399.94;10514957;28;1843;-78
2022/07/17 12:02:58;;;;;;;;;;;26.60;59.30;;;26.01;25.57;96388.31;10497669;28;1911;-80
2022/07/17 12:08:01;;;;;;;;;;;26.80;60.20;;;26.12;24.38;96392.09;10508538;28;1957;-80
2022/07/17 12:13:05;;;;;;;;;;;27.10;59.10;;;25.99;24.64;96379.59;10489745;28;1884;-78
2022/07/17 12:18:09;;;;;;;;;;;27.10;59.40;;;25.98;23.90;96380.78;10466991;28;1857;-80
2022/07/17 12:23:12;;;;;;;;;;;27.00;58.90;;;26.28;23.85;96383.81;10477209;28;1845;-80
2022/07/17 12:28:16;;;;;;;;;;;27.30;59.10;;;26.34;24.25;96369.41;10491252;28;1895;-81
2022/07/17 12:33:18;;;;;;;;;;;27.30;59.00;;;26.87;23.49;96374.44;10517396;28;1702;-79
2022/07/17 12:38:21;;;;;;;;;;;27.70;58.80;;;27.31;22.34;96363.84;10526570;28;1746;-79
2022/07/17 12:43:24;;;;;;;;;;;28.20;58.00;;;26.93;23.24;96367.44;10525480;28;2057;-81
2022/07/17 12:48:27;;;;;;;;;;;28.00;57.90;;;26.73;23.01;96366.69;10481664;28;2014;-79
2022/07/17 12:53:30;;;;;;;;;;;27.90;57.50;;;26.82;22.71;96366.44;10471499;28;1861;-81
2022/07/17 12:58:34;;;;;;;;;;;27.90;57.20;;;26.93;22.23;96367.44;10472892;28;1991;-80
2022/07/17 13:03:38;;;;;;;;;;;27.90;56.80;;;26.84;22.66;96364.91;10488960;28;1878;-79
2022/07/17 13:08:41;;;;;;;;;;;28.00;57.30;;;26.79;22.39;96365.22;10481260;28;1977;-79
2022/07/17 13:13:44;;;;;;;;;;;27.90;56.50;;;26.52;22.41;96356.00;10485951;28;1992;-79
2022/07/17 13:18:49;;;;;;;;;;;27.70;56.50;;;27.10;22.07;96356.00;10487864;28;1819;-80
2022/07/17 13:23:53;;;;;;;;;;;27.90;56.50;;;27.27;22.44;96357.44;10487507;28;1892;-80
2022/07/17 13:28:56;;;;;;;;;;;28.10;57.20;;;27.19;20.97;96355.75;10481298;28;1887;-76
2022/07/17 13:33:59;;;;;;;;;;;28.10;55.80;;;27.24;21.75;96349.91;10488696;28;1872;-81
2022/07/17 13:39:03;;;;;;;;;;;28.20;56.40;;;26.87;21.88;96347.63;10472266;28;2098;-80
2022/07/17 13:44:07;;;;;;;;;;;28.10;56.40;;;26.99;22.06;96343.13;10462563;28;1790;-79
2022/07/17 13:49:10;;;;;;;;;;;27.90;56.10;;;27.03;22.17;96343.97;10481490;28;1918;-80
2022/07/17 13:54:13;;;;;;;;;;;28.10;56.50;;;26.87;22.67;96335.81;10484505;28;2065;-79
2022/07/17 13:59:17;;;;;;;;;;;27.90;56.70;;;26.75;24.00;96350.56;10465960;28;1868;-80
2022/07/17 14:04:21;;;;;;;;;;;27.90;57.80;;;26.61;24.01;96350.28;10487091;28;2003;-81
2022/07/17 14:09:24;;;;;;;;;;;27.60;58.00;;;26.88;23.50;96349.22;10489895;28;1967;-80
2022/07/17 14:14:27;;;;;;;;;;;27.60;57.90;;;27.06;22.72;96338.56;10491941;28;1799;-81
2022/07/17 14:19:31;;;;;;;;;;;27.90;57.10;;;27.23;23.03;96336.47;10498708;28;1831;-79
2022/07/17 14:24:34;;;;;;;;;;;28.10;57.90;;;26.87;22.97;96335.81;10482509;28;1901;-81
2022/07/17 14:29:37;;;;;;;;;;;27.90;57.00;;;27.12;22.29;96336.31;10482232;28;1979;-79
2022/07/17 14:34:40;;;;;;;;;;;28.00;57.10;;;27.24;22.39;96327.84;10475321;28;2004;-79
2022/07/17 14:39:47;;;;;;;;;;;28.10;56.90;;;27.44;21.48;96325.81;10527767;28;1870;-79
2022/07/17 14:44:51;;;;;;;;;;;28.30;56.30;;;27.38;21.51;96327.28;10502029;28;1789;-79
2022/07/17 14:49:54;;;;;;;;;;;28.40;55.80;;;27.45;21.73;96327.41;10480809;28;1969;-78
2022/07/17 14:54:57;;;;;;;;;;;28.30;56.20;;;27.00;22.53;96328.97;10458142;28;1831;-79
2022/07/17 15:00:00;;;;;;;;;;;28.20;56.70;;;27.57;21.92;96324.44;10463144;28;1976;-79
2022/07/17 15:05:04;;;;;;;;;;;28.30;56.80;;;27.56;22.12;96324.81;10471444;28;2017;-79
2022/07/17 15:10:07;;;;;;;;;;;28.50;56.30;;;27.23;22.68;96330.94;10463836;28;2053;-78
2022/07/17 15:15:10;;;;;;;;;;;28.40;56.80;;;27.40;22.60;96335.97;10466881;28;2030;-78
2022/07/17 15:20:13;;;;;;;;;;;28.30;57.30;;;27.28;22.26;96327.88;10470618;28;1851;-77
2022/07/17 15:25:16;;;;;;;;;;;28.30;56.80;;;27.41;22.79;96327.31;10455965;28;1837;-80
2022/07/17 15:30:19;;;;;;;;;;;28.50;56.80;;;27.24;23.33;96327.84;10451031;28;1973;-79
2022/07/17 15:35:24;;;;;;;;;;;28.30;57.50;;;27.02;22.97;96325.81;10452939;28;1468;-80
2022/07/17 15:40:28;;;;;;;;;;;28.20;57.20;;;27.14;22.82;96323.72;10468641;28;1444;-78
2022/07/17 15:45:31;;;;;;;;;;;28.10;57.30;;;27.32;22.35;96318.50;10460020;28;1853;-81
2022/07/17 15:50:34;;;;;;;;;;;28.10;57.20;;;27.60;22.84;96322.88;10462979;28;1977;-79
2022/07/17 15:55:37;;;;;;;;;;;28.40;57.20;;;27.22;22.14;96313.59;10454927;28;2011;-76
2022/07/17 16:00:40;;;;;;;;;;;27.80;56.00;;;27.36;23.02;96311.09;10459523;28;1979;-79
2022/07/17 16:05:43;;;;;;;;;;;28.20;57.20;;;26.52;23.64;96324.88;10455242;28;1999;-79
2022/07/17 16:10:47;;;;;;;;;;;27.80;57.00;;;26.56;23.64;96311.97;10445886;28;1983;-79
2022/07/17 16:15:51;;;;;;;;;;;27.50;57.80;;;26.50;24.07;96316.19;10454133;28;1923;-75
2022/07/17 16:20:55;;;;;;;;;;;27.40;58.30;;;26.46;25.11;96309.78;10448495;28;1943;-77
2022/07/17 16:25:59;;;;;;;;;;;27.30;59.10;;;26.37;25.15;96302.50;10467967;28;2406;-76
2022/07/17 16:31:02;;;;;;;;;;;27.30;59.20;;;26.12;25.23;96309.44;10471959;28;1961;-76
2022/07/17 16:36:05;;;;;;;;;;;27.10;59.60;;;25.99;25.44;96302.47;10463767;28;2428;-77
2022/07/17 16:41:09;;;;;;;;;;;26.90;59.40;;;25.61;25.60;96301.22;10461270;28;2101;-77
2022/07/17 16:46:12;;;;;;;;;;;26.70;59.30;;;25.70;26.14;96301.78;10476874;28;1885;-77
2022/07/17 16:51:16;;;;;;;;;;;26.60;60.10;;;25.67;26.14;96299.78;10485385;28;1946;-78
2022/07/17 16:56:26;;;;;;;;;;;26.60;60.20;;;25.40;26.17;96303.47;10490635;28;1907;-76
2022/07/17 17:01:30;;;;;;;;;;;26.40;60.00;;;25.34;26.05;96300.97;10493968;28;1831;-78
2022/07/17 17:06:34;;;;;;;;;;;26.20;60.10;;;25.21;26.38;96293.97;10485999;28;1956;-76
2022/07/17 17:11:38;;;;;;;;;;;26.10;60.50;;;25.07;26.62;96296.38;10467288;28;1975;-77
2022/07/17 17:16:41;;;;;;;;;;;26.00;60.90;;;25.02;26.66;96308.41;10482314;28;2034;-78
2022/07/17 17:21:45;;;;;;;;;;;25.80;60.70;;;24.90;26.83;96302.19;10467504;28;2030;-78
2022/07/17 17:26:47;;;;;;;;;;;25.80;60.70;;;24.91;27.17;96292.78;10479491;28;1914;-78
2022/07/17 17:31:50;;;;;;;;;;;25.40;61.30;;;24.71;29.04;96291.84;10475783;28;1922;-79
2022/07/17 17:36:54;;;;;;;;;;;25.50;63.90;;;24.58;28.54;96290.31;10484481;28;2095;-79
2022/07/17 17:41:57;;;;;;;;;;;25.40;63.60;;;24.53;28.10;96292.16;10480684;28;2008;-80
2022/07/17 17:47:02;;;;;;;;;;;25.40;63.10;;;24.46;30.30;96299.41;10493220;28;1950;-82
2022/07/17 17:52:06;;;;;;;;;;;25.30;64.40;;;24.38;29.11;96298.44;10490016;28;1997;-81
2022/07/17 17:57:09;;;;;;;;;;;25.50;63.90;;;24.31;28.77;96297.41;10533682;28;1959;-81
2022/07/17 18:02:13;;;;;;;;;;;;;;;24.23;30.02;96304.63;10493831;28;2272;-82
2022/07/17 18:07:17;;;;;;;;;;;25.10;64.50;;;24.13;29.43;96303.19;10488549;28;1765;-81
2022/07/17 18:12:21;;;;;;;;;;;25.00;64.40;;;24.07;30.61;96304.56;10473350;28;1995;-80
2022/07/17 18:17:24;;;;;;;;;;;24.90;65.10;;;23.91;30.24;96309.16;10490231;28;2061;-81
2022/07/17 18:22:27;;;;;;;;;;;24.80;65.10;;;23.77;30.48;96306.78;10484005;28;1843;-81
2022/07/17 18:27:31;;;;;;;;;;;24.70;65.40;;;23.73;31.02;96309.44;10489230;28;1847;-82
2022/07/17 18:32:35;;;;;;;;;;;24.60;65.90;;;23.60;30.95;96302.34;10475620;28;2017;-81
2022/07/17 18:37:37;;;;;;;;;;;24.50;65.60;;;23.54;31.21;96309.22;10488973;28;1962;-80
2022/07/17 18:42:41;;;;;;;;;;;24.40;66.20;;;23.36;30.91;96302.34;10489074;28;1866;-80
2022/07/17 18:47:43;;;;;;;;;;;24.30;65.70;;;23.27;31.13;96313.41;10493478;28;1905;-80
2022/07/17 18:52:47;;;;;;;;;;;24.20;66.00;;;23.22;31.11;96313.63;10491604;28;1918;-82
2022/07/17 18:57:50;;;;;;;;;;;24.10;66.30;;;22.96;31.47;96318.63;10475446;28;1972;-82
2022/07/17 19:02:54;;;;;;;;;;;23.90;66.10;;;22.87;32.90;96310.53;10487439;28;2142;-80
2022/07/17 19:07:57;;;;;;;;;;;23.80;67.60;;;22.76;31.99;96325.75;10487137;28;1832;-80
2022/07/17 19:13:00;;;;;;;;;;;23.70;67.00;;;22.61;33.25;96317.03;10482118;28;1973;-81
2022/07/17 19:18:03;;;;;;;;;;;23.60;67.70;;;22.35;33.36;96335.66;10485178;28;1836;-82
2022/07/17 19:23:08;;;;;;;;;;;23.40;67.80;;;22.20;34.67;96331.56;10472678;28;1891;-80
2022/07/17 19:28:12;;;;;;;;;;;23.30;68.80;;;22.03;34.98;96340.72;10482024;28;1847;-78
2022/07/17 19:33:15;;;;;;;;;;;23.10;69.40;;;21.77;35.50;96343.63;10487420;28;1973;-78
2022/07/17 19:38:20;;;;;;;;;;;22.90;70.00;;;21.51;36.55;96352.00;10464370;28;1868;-79
2022/07/17 19:43:23;;;;;;;;;;;22.70;70.60;;;21.37;36.84;96348.66;10473895;28;2165;-80
2022/07/17 19:48:26;;;;;;;;;;;22.50;71.20;;;21.36;37.06;96349.78;10483556;28;1950;-79
2022/07/17 19:53:31;;;;;;;;;;;22.40;71.70;;;21.47;37.87;96359.25;10456930;28;1983;-82
2022/07/17 19:58:34;;;;;;;;;;;22.40;72.60;;;21.41;37.75;96368.75;10478277;28;1911;-79
2022/07/17 20:03:37;;;;;;;;;;;22.40;72.70;;;21.17;38.95;96363.03;10465139;28;1913;-80
2022/07/17 20:08:42;;;;;;;;;;;22.30;73.00;;;21.03;39.17;96376.91;10479919;28;1951;-79
2022/07/17 20:13:45;;;;;;;;;;;22.20;73.40;;;20.79;39.77;96375.50;10476476;28;1919;-79
2022/07/17 20:18:48;;;;;;;;;;;22.00;74.00;;;20.73;40.25;96387.72;10479198;28;1953;-79
2022/07/17 20:23:51;;;;;;;;;;;21.80;74.40;;;20.72;40.61;96379.84;10479511;28;2081;-79
2022/07/17 20:28:55;;;;;;;;;;;21.70;75.10;;;20.84;40.53;96382.72;10478323;28;1990;-80
2022/07/17 20:33:58;;;;;;;;;;;21.70;75.50;;;20.71;40.88;96387.25;10493876;28;1922;-79
2022/07/17 20:39:01;;;;;;;;;;;21.70;75.60;;;20.57;41.67;96394.81;10524684;28;1750;-79
2022/07/17 20:44:04;;;;;;;;;;;21.60;75.90;;;20.53;41.72;96382.94;10496780;28;1876;-80
2022/07/17 20:49:08;;;;;;;;;;;21.60;76.20;;;20.59;41.95;96392.56;10467555;28;1845;-80
2022/07/17 20:54:11;;;;;;;;;;;21.60;76.50;;;20.47;42.00;96385.03;10478689;28;1969;-81
2022/07/17 20:59:15;;;;;;;;;;;21.50;76.90;;;20.32;42.75;96376.50;10486261;28;1828;-81
2022/07/17 21:04:17;;;;;;;;;;;21.40;77.00;;;20.29;42.69;96377.13;10469931;28;1851;-79
2022/07/17 21:09:20;;;;;;;;;;;21.30;77.60;;;20.24;42.38;96381.63;10480551;28;1935;-80
2022/07/17 21:14:24;;;;;;;;;;;21.30;77.00;;;20.03;43.53;96383.38;10467934;28;1930;-79
2022/07/17 21:19:27;;;;;;;;;;;21.10;77.50;;;19.90;44.08;96382.38;10486963;28;1940;-79
2022/07/17 21:24:30;;;;;;;;;;;20.90;78.20;;;19.98;43.54;96378.88;10473398;28;1865;-82
2022/07/17 21:29:33;;;;;;;;;;;21.00;78.20;;;19.81;44.31;96384.31;10487801;28;1866;-79
2022/07/17 21:34:36;;;;;;;;;;;20.90;78.70;;;19.74;45.03;96383.97;10469093;28;1989;-79
2022/07/17 21:39:38;;;;;;;;;;;20.80;78.80;;;19.74;44.26;96377.72;10474247;28;1861;-80
2022/07/17 21:44:42;;;;;;;;;;;20.80;78.80;;;19.55;44.47;96392.38;10517031;28;1777;-80
2022/07/17 21:49:45;;;;;;;;;;;20.70;79.10;;;19.42;45.02;96385.91;10503837;28;1726;-78
2022/07/17 21:54:49;;;;;;;;;;;20.50;79.30;;;19.44;44.89;96391.06;10501854;28;1954;-81
2022/07/17 21:59:52;;;;;;;;;;;20.40;79.40;;;19.34;45.30;96391.31;10516250;28;1797;-80
2022/07/17 22:04:55;;;;;;;;;;;20.30;79.70;;;19.28;45.14;96387.16;10474375;28;1969;-78
2022/07/17 22:09:59;;;;;;;;;;;20.30;79.80;;;19.14;45.49;96398.13;10480677;28;1785;-79
2022/07/17 22:15:02;;;;;;;;;;;20.20;79.90;;;19.22;45.91;96400.13;10485233;28;1910;-80
2022/07/17 22:20:05;;;;;;;;;;;20.10;80.70;;;19.36;44.93;96383.66;10488343;28;1927;-79
2022/07/17 22:25:08;;;;;;;;;;;20.20;80.10;;;19.36;45.26;96378.19;10480066;28;1863;-80
2022/07/17 22:30:10;;;;;;;;;;;20.30;80.00;;;19.22;45.61;96382.97;10493107;28;1910;-79
2022/07/17 22:35:34;;;;;;;;;;;20.20;79.70;;;19.18;45.59;96371.88;10490951;28;1788;-80
2022/07/17 22:40:37;;;;;;;;;;;20.20;80.30;;;19.04;45.39;96376.63;10478162;28;1765;-80
2022/07/17 22:45:42;;;;;;;;;;;20.10;80.10;;;18.93;46.11;96369.81;10489152;28;1872;-81
2022/07/17 22:50:46;;;;;;;;;;;;;;;18.90;46.64;96372.06;10486970;28;1996;-80
2022/07/17 22:55:49;;;;;;;;;;;;;;;18.87;46.73;96375.41;10490075;28;1789;-80
2022/07/17 23:00:52;;;;;;;;;;;19.80;81.20;;;18.73;46.88;96382.03;10488222;28;1852;-78
2022/07/17 23:05:55;;;;;;;;;;;19.60;81.30;;;18.63;47.53;96380.34;10476084;28;1859;-80
2022/07/17 23:10:58;;;;;;;;;;;19.90;82.00;;;18.49;48.10;96383.13;10468601;28;1984;-80
2022/07/17 23:16:01;;;;;;;;;;;19.50;82.10;;;18.52;48.71;96376.28;10485497;28;1879;-79
2022/07/17 23:21:04;;;;;;;;;;;19.40;82.60;;;18.50;48.48;96378.47;10481381;28;1885;-81